createdAt,value
2022-12-25T00:00:26.476Z,99879.69
2022-12-25T00:00:57.900Z,99882.44
2022-12-25T00:01:29.325Z,99879.75
2022-12-25T00:02:00.753Z,99887.66
2022-12-25T00:02:32.232Z,99883.03
2022-12-25T00:03:03.825Z,99885.78
2022-12-25T00:03:35.584Z,99888.47
2022-12-25T00:04:07.138Z,99896.94
2022-12-25T00:04:38.586Z,99887.13
2022-12-25T00:05:10.074Z,99894.50
2022-12-25T00:05:41.493Z,99891.19
2022-12-25T00:06:12.965Z,99896.28
2022-12-25T00:06:44.401Z,99886.19
2022-12-25T00:07:15.870Z,99889.81
2022-12-25T00:07:47.235Z,99897.09
2022-12-25T00:08:18.691Z,99891.72
2022-12-25T00:08:50.118Z,99887.88
2022-12-25T00:09:21.584Z,99895.56
2022-12-25T00:09:52.963Z,99895.84
2022-12-25T00:10:24.430Z,99897.41
2022-12-25T00:10:56.089Z,99894.09
2022-12-25T00:11:27.551Z,99900.88
2022-12-25T00:11:59.005Z,99901.97
2022-12-25T00:12:30.382Z,99899.47
2022-12-25T00:13:01.881Z,99890.47
2022-12-25T00:13:33.307Z,99900.28
2022-12-25T00:14:04.699Z,99894.81
2022-12-25T00:14:36.102Z,99903.53
2022-12-25T00:15:07.479Z,99904.63
2022-12-25T00:15:38.916Z,99899.19
2022-12-25T00:16:10.613Z,99900.28
2022-12-25T00:16:42.148Z,99901.91
2022-12-25T00:17:13.602Z,99907.38
2022-12-25T00:17:45.040Z,99902.44
2022-12-25T00:18:16.445Z,99904.34
2022-12-25T00:18:47.906Z,99904.63
2022-12-25T00:19:19.368Z,99901.91
2022-12-25T00:19:50.787Z,99900.00
2022-12-25T00:20:22.261Z,99903.53
2022-12-25T00:20:53.728Z,99900.81
2022-12-25T00:21:25.125Z,99909.81
2022-12-25T00:21:56.560Z,99907.38
2022-12-25T00:22:27.949Z,99907.38
2022-12-25T00:22:59.451Z,99909.28
2022-12-25T00:23:30.870Z,99908.19
2022-12-25T00:24:02.479Z,99906.25
2022-12-25T00:24:33.940Z,99907.38
2022-12-25T00:25:05.440Z,99904.63
2022-12-25T00:25:36.823Z,99905.44
2022-12-25T00:26:08.297Z,99909.56
2022-12-25T00:26:39.732Z,99907.66
2022-12-25T00:27:11.119Z,99911.19
2022-12-25T00:27:42.510Z,99910.38
2022-12-25T00:28:13.950Z,99908.47
2022-12-25T00:28:45.322Z,99912.81
2022-12-25T00:29:16.746Z,99911.19
2022-12-25T00:29:48.211Z,99914.75
2022-12-25T00:30:19.668Z,99912.59
2022-12-25T00:30:51.253Z,99916.13
2022-12-25T00:31:22.816Z,99909.66
2022-12-25T00:31:54.304Z,99912.06
2022-12-25T00:32:25.803Z,99916.44
2022-12-25T00:32:57.280Z,99914.50
2022-12-25T00:33:28.696Z,99921.31
2022-12-25T00:34:00.161Z,99923.22
2022-12-25T00:34:31.647Z,99922.94
2022-12-25T00:35:03.098Z,99926.53
2022-12-25T00:35:34.517Z,99923.81
2022-12-25T00:36:05.988Z,99923.81
2022-12-25T00:36:41.599Z,99923.22
2022-12-25T00:37:13.446Z,99922.41
2022-12-25T00:37:44.948Z,99923.50
2022-12-25T00:38:16.381Z,99922.69
2022-12-25T00:38:47.833Z,99925.13
2022-12-25T00:39:19.230Z,99918.06
2022-12-25T00:39:50.623Z,99920.78
2022-12-25T00:40:22.116Z,99920.25
2022-12-25T00:40:53.553Z,99925.50
2022-12-25T00:41:24.979Z,99923.81
2022-12-25T00:41:56.507Z,99920.56
2022-12-25T00:42:27.886Z,99926.53
2022-12-25T00:42:59.316Z,99924.31
2022-12-25T00:43:30.762Z,99928.44
2022-12-25T00:44:02.224Z,99913.47
2022-12-25T00:44:33.669Z,99915.41
2022-12-25T00:45:05.076Z,99923.00
2022-12-25T00:45:36.508Z,99923.28
2022-12-25T00:46:08.014Z,99915.31
2022-12-25T00:46:39.552Z,99919.69
2022-12-25T00:47:11.168Z,99923.28
2022-12-25T00:47:42.754Z,99930.38
2022-12-25T00:48:14.133Z,99918.34
2022-12-25T00:48:45.565Z,99922.19
2022-12-25T00:49:16.971Z,99921.38
2022-12-25T00:49:48.419Z,99914.81
2022-12-25T00:50:19.805Z,99917.81
2022-12-25T00:50:51.214Z,99918.63
2022-12-25T00:51:22.647Z,99917.25
2022-12-25T00:51:54.114Z,99914.50
2022-12-25T00:52:25.577Z,99912.88
2022-12-25T00:52:57.005Z,99913.41
2022-12-25T00:53:28.441Z,99917.25
2022-12-25T00:53:59.828Z,99913.69
2022-12-25T00:54:31.380Z,99908.53
2022-12-25T00:55:02.782Z,99907.72
2022-12-25T00:55:34.271Z,99913.69
2022-12-25T00:56:05.676Z,99914.81
2022-12-25T00:56:37.147Z,99906.09
2022-12-25T00:57:08.611Z,99911.25
2022-12-25T00:57:40.268Z,99907.44
2022-12-25T00:58:11.705Z,99911.78
2022-12-25T00:58:43.110Z,99912.59
2022-12-25T00:59:14.554Z,99907.44
2022-12-25T00:59:45.961Z,99909.06
2022-12-25T01:00:17.362Z,99913.69
2022-12-25T01:00:48.861Z,99910.69
2022-12-25T01:01:20.671Z,99915.63
2022-12-25T01:01:52.340Z,99923.50
2022-12-25T01:02:24.168Z,99916.13
2022-12-25T01:02:55.960Z,99909.66
2022-12-25T01:03:27.547Z,99908.25
2022-12-25T01:03:59.002Z,99905.81
2022-12-25T01:04:30.406Z,99908.25
2022-12-25T01:05:01.881Z,99905.50
2022-12-25T01:05:33.291Z,99908.81
2022-12-25T01:06:04.681Z,99908.53
2022-12-25T01:06:36.069Z,99907.44
2022-12-25T01:07:07.472Z,99906.91
2022-12-25T01:07:38.923Z,99906.34
2022-12-25T01:08:10.689Z,99903.16
2022-12-25T01:08:42.050Z,99906.41
2022-12-25T01:09:13.462Z,99908.53
2022-12-25T01:09:44.940Z,99912.06
2022-12-25T01:10:16.378Z,99907.50
2022-12-25T01:10:47.881Z,99910.16
2022-12-25T01:11:19.278Z,99902.03
2022-12-25T01:11:50.737Z,99905.00
2022-12-25T01:12:22.191Z,99905.81
2022-12-25T01:12:53.571Z,99905.28
2022-12-25T01:13:25.057Z,99905.28
2022-12-25T01:13:56.514Z,99898.78
2022-12-25T01:14:27.923Z,99908.81
2022-12-25T01:14:59.361Z,99909.13
2022-12-25T01:15:30.765Z,99905.00
2022-12-25T01:16:02.247Z,99914.50
2022-12-25T01:16:33.720Z,99908.25
2022-12-25T01:17:05.335Z,99911.56
2022-12-25T01:17:36.846Z,99905.00
2022-12-25T01:18:09.844Z,99909.13
2022-12-25T01:18:44.491Z,99912.38
2022-12-25T01:19:15.951Z,99910.16
2022-12-25T01:19:47.419Z,99909.34
2022-12-25T01:20:18.833Z,99909.94
2022-12-25T01:20:50.242Z,99910.16
2022-12-25T01:21:21.651Z,99911.25
2022-12-25T01:21:53.072Z,99905.22
2022-12-25T01:22:24.496Z,99905.28
2022-12-25T01:22:55.908Z,99906.09
2022-12-25T01:23:27.325Z,99900.66
2022-12-25T01:23:58.740Z,99900.06
2022-12-25T01:24:30.166Z,99897.34
2022-12-25T01:25:01.945Z,99898.13
2022-12-25T01:25:33.360Z,99899.25
2022-12-25T01:26:04.895Z,99897.34
2022-12-25T01:26:36.347Z,99891.88
2022-12-25T01:27:07.804Z,99901.16
2022-12-25T01:27:39.234Z,99900.94
2022-12-25T01:28:10.627Z,99903.38
2022-12-25T01:29:17.251Z,99902.56
2022-12-25T01:29:48.413Z,99903.09
2022-12-25T01:30:19.593Z,99905.50
2022-12-25T01:30:50.746Z,99906.34
2022-12-25T01:31:22.005Z,99904.19
2022-12-25T01:31:53.246Z,99901.75
2022-12-25T01:32:24.415Z,99905.81
2022-12-25T01:32:55.600Z,99899.25
2022-12-25T01:33:26.755Z,99907.22
2022-12-25T01:33:57.928Z,99904.19
2022-12-25T01:34:29.351Z,99911.78
2022-12-25T01:35:00.789Z,99913.47
2022-12-25T01:35:32.197Z,99904.78
2022-12-25T01:36:03.705Z,99913.19
2022-12-25T01:36:35.107Z,99915.91
2022-12-25T01:37:06.457Z,99917.53
2022-12-25T01:37:37.861Z,99914.81
2022-12-25T01:38:09.214Z,99917.53
2022-12-25T01:38:40.578Z,99917.53
2022-12-25T01:39:11.952Z,99920.03
2022-12-25T01:39:43.411Z,99914.28
2022-12-25T01:40:14.813Z,99918.13
2022-12-25T01:40:46.262Z,99915.91
2022-12-25T01:41:17.658Z,99914.50
2022-12-25T01:41:49.034Z,99915.31
2022-12-25T01:42:20.416Z,99906.63
2022-12-25T01:42:51.772Z,99903.59
2022-12-25T01:43:23.129Z,99905.81
2022-12-25T01:43:54.517Z,99905.81
2022-12-25T01:44:25.865Z,99907.72
2022-12-25T01:44:57.279Z,99906.34
2022-12-25T01:45:28.659Z,99906.34
2022-12-25T01:46:00.199Z,99909.06
2022-12-25T01:46:31.740Z,99905.81
2022-12-25T01:47:03.145Z,99910.16
2022-12-25T01:47:34.512Z,99909.06
2022-12-25T01:48:05.839Z,99916.44
2022-12-25T01:48:37.263Z,99916.13
2022-12-25T01:49:08.647Z,99922.41
2022-12-25T01:49:40.028Z,99914.59
2022-12-25T01:50:11.453Z,99910.44
2022-12-25T01:50:42.811Z,99915.63
2022-12-25T01:51:14.281Z,99918.94
2022-12-25T01:51:45.629Z,99910.75
2022-12-25T01:52:21.752Z,99910.75
2022-12-25T01:52:55.364Z,99909.41
2022-12-25T01:53:26.740Z,99906.09
2022-12-25T01:53:58.094Z,99913.78
2022-12-25T01:54:29.447Z,99906.09
2022-12-25T01:55:00.836Z,99906.91
2022-12-25T01:55:32.292Z,99909.66
2022-12-25T01:56:03.683Z,99905.28
2022-12-25T01:56:35.098Z,99902.78
2022-12-25T01:57:06.473Z,99903.38
2022-12-25T01:57:37.922Z,99903.44
2022-12-25T01:58:09.308Z,99900.66
2022-12-25T01:58:40.728Z,99901.75
2022-12-25T01:59:12.119Z,99900.41
2022-12-25T01:59:43.677Z,99896.59
2022-12-25T02:00:15.065Z,99901.75
2022-12-25T02:00:46.498Z,99895.47
2022-12-25T02:01:18.086Z,99894.09
2022-12-25T02:01:49.701Z,99897.63
2022-12-25T02:02:21.232Z,99894.91
2022-12-25T02:02:52.823Z,99885.66
2022-12-25T02:03:24.341Z,99881.53
2022-12-25T02:03:55.803Z,99881.84
2022-12-25T02:04:27.165Z,99883.97
2022-12-25T02:04:58.516Z,99881.25
2022-12-25T02:05:29.849Z,99880.22
2022-12-25T02:06:01.286Z,99876.59
2022-12-25T02:06:32.646Z,99880.72
2022-12-25T02:07:04.024Z,99869.81
2022-12-25T02:07:35.576Z,99873.38
2022-12-25T02:08:07.005Z,99876.91
2022-12-25T02:08:38.457Z,99873.06
2022-12-25T02:09:09.796Z,99882.88
2022-12-25T02:09:41.143Z,99878.53
2022-12-25T02:10:12.510Z,99880.97
2022-12-25T02:10:43.880Z,99876.59
2022-12-25T02:11:15.262Z,99882.66
2022-12-25T02:11:46.688Z,99884.28
2022-12-25T02:12:18.087Z,99877.72
2022-12-25T02:12:49.576Z,99887.28
2022-12-25T02:13:20.972Z,99881.53
2022-12-25T02:13:52.369Z,99883.97
2022-12-25T02:14:23.832Z,99885.66
2022-12-25T02:14:59.614Z,99881.53
2022-12-25T02:15:34.344Z,99886.72
2022-12-25T02:16:05.848Z,99883.97
2022-12-25T02:16:56.868Z,99886.72
2022-12-25T02:17:28.638Z,99889.44
2022-12-25T02:18:00.130Z,99896.81
2022-12-25T02:18:31.561Z,99896.28
2022-12-25T02:19:03.009Z,99895.72
2022-12-25T02:19:34.371Z,99886.72
2022-12-25T02:20:05.771Z,99889.50
2022-12-25T02:20:37.140Z,99894.91
2022-12-25T02:21:08.510Z,99887.28
2022-12-25T02:21:39.937Z,99888.91
2022-12-25T02:22:11.298Z,99888.91
2022-12-25T02:22:42.645Z,99883.16
2022-12-25T02:23:14.012Z,99892.16
2022-12-25T02:23:45.415Z,99890.25
2022-12-25T02:24:16.853Z,99889.44
2022-12-25T02:24:48.235Z,99884.78
2022-12-25T02:25:19.621Z,99888.03
2022-12-25T02:25:50.993Z,99893.28
2022-12-25T02:26:22.366Z,99893.28
2022-12-25T02:26:53.828Z,99891.06
2022-12-25T02:27:25.206Z,99897.63
2022-12-25T02:27:56.609Z,99900.06
2022-12-25T02:28:27.975Z,99892.75
2022-12-25T02:28:59.393Z,99891.13
2022-12-25T02:29:30.869Z,99901.47
2022-12-25T02:30:05.224Z,99896.88
2022-12-25T02:30:36.595Z,99902.84
2022-12-25T02:31:07.980Z,99906.41
2022-12-25T02:31:39.392Z,99905.59
2022-12-25T02:32:10.868Z,99904.78
2022-12-25T02:32:42.293Z,99903.38
2022-12-25T02:33:13.671Z,99897.63
2022-12-25T02:33:45.066Z,99901.97
2022-12-25T02:34:16.461Z,99906.34
2022-12-25T02:34:47.882Z,99901.97
2022-12-25T02:35:19.262Z,99907.44
2022-12-25T02:35:50.622Z,99907.44
2022-12-25T02:36:22.077Z,99905.81
2022-12-25T02:36:53.580Z,99911.25
2022-12-25T02:37:24.944Z,99908.53
2022-12-25T02:37:56.314Z,99910.16
2022-12-25T02:38:27.719Z,99906.41
2022-12-25T02:38:59.090Z,99909.66
2022-12-25T02:39:30.476Z,99913.47
2022-12-25T02:40:01.852Z,99906.69
2022-12-25T02:40:33.288Z,99911.56
2022-12-25T02:41:04.685Z,99916.72
2022-12-25T02:41:36.036Z,99917.53
2022-12-25T02:42:07.461Z,99918.94
2022-12-25T02:42:38.909Z,99912.38
2022-12-25T02:43:10.291Z,99919.44
2022-12-25T02:43:41.672Z,99915.09
2022-12-25T02:44:13.045Z,99914.28
2022-12-25T02:44:44.424Z,99911.25
2022-12-25T02:45:15.888Z,99917.03
2022-12-25T02:45:47.362Z,99919.44
2022-12-25T02:46:18.884Z,99906.63
2022-12-25T02:46:50.382Z,99909.34
2022-12-25T02:47:21.802Z,99912.88
2022-12-25T02:47:53.238Z,99909.66
2022-12-25T02:48:24.587Z,99908.81
2022-12-25T02:48:56.028Z,99907.72
2022-12-25T02:49:27.466Z,99911.25
2022-12-25T02:49:58.939Z,99908.53
2022-12-25T02:50:30.364Z,99903.09
2022-12-25T02:51:01.770Z,99914.50
2022-12-25T02:51:33.159Z,99909.06
2022-12-25T02:52:04.545Z,99908.03
2022-12-25T02:52:35.907Z,99905.59
2022-12-25T02:53:07.306Z,99903.38
2022-12-25T02:53:38.693Z,99909.66
2022-12-25T02:54:10.155Z,99909.66
2022-12-25T02:54:41.493Z,99909.34
2022-12-25T02:55:12.864Z,99908.81
2022-12-25T02:55:44.297Z,99915.91
2022-12-25T02:56:15.702Z,99908.03
2022-12-25T02:56:47.051Z,99902.56
2022-12-25T02:57:18.444Z,99905.59
2022-12-25T02:57:49.831Z,99904.47
2022-12-25T02:58:21.273Z,99904.19
2022-12-25T02:58:52.692Z,99903.16
2022-12-25T02:59:24.086Z,99906.91
2022-12-25T02:59:55.533Z,99905.81
2022-12-25T03:00:26.935Z,99903.38
2022-12-25T03:00:58.318Z,99899.53
2022-12-25T03:01:29.914Z,99907.44
2022-12-25T03:02:01.453Z,99900.34
2022-12-25T03:02:32.946Z,99907.72
2022-12-25T03:03:04.450Z,99906.41
2022-12-25T03:03:35.930Z,99896.28
2022-12-25T03:04:07.344Z,99899.53
2022-12-25T03:04:38.765Z,99910.44
2022-12-25T03:05:10.148Z,99897.34
2022-12-25T03:05:41.595Z,99894.97
2022-12-25T03:06:12.988Z,99893.28
2022-12-25T03:06:44.416Z,99904.72
2022-12-25T03:07:15.891Z,99900.34
2022-12-25T03:07:47.256Z,99893.28
2022-12-25T03:08:18.640Z,99894.91
2022-12-25T03:08:51.681Z,99899.53
2022-12-25T03:09:23.797Z,99901.97
2022-12-25T03:09:55.503Z,99900.34
2022-12-25T03:10:26.979Z,99898.13
2022-12-25T03:10:58.397Z,99900.06
2022-12-25T03:11:30.338Z,99898.44
2022-12-25T03:12:02.542Z,99901.97
2022-12-25T03:12:34.334Z,99899.25
2022-12-25T03:13:05.732Z,99894.09
2022-12-25T03:13:37.087Z,99890.25
2022-12-25T03:14:08.477Z,99891.88
2022-12-25T03:14:39.878Z,99893.28
2022-12-25T03:15:11.378Z,99896.28
2022-12-25T03:15:42.771Z,99885.09
2022-12-25T03:16:14.251Z,99895.72
2022-12-25T03:16:45.861Z,99890.25
2022-12-25T03:17:17.258Z,99893.78
2022-12-25T03:17:48.719Z,99899.84
2022-12-25T03:18:20.102Z,99893.56
2022-12-25T03:18:51.465Z,99897.91
2022-12-25T03:19:22.810Z,99903.38
2022-12-25T03:19:54.158Z,99894.97
2022-12-25T03:20:25.919Z,99894.38
2022-12-25T03:20:57.279Z,99890.53
2022-12-25T03:21:28.634Z,99900.34
2022-12-25T03:22:00.023Z,99885.66
2022-12-25T03:22:31.870Z,99891.13
2022-12-25T03:23:03.356Z,99898.72
2022-12-25T03:23:34.737Z,99899.03
2022-12-25T03:24:06.117Z,99898.72
2022-12-25T03:24:37.490Z,99897.09
2022-12-25T03:25:08.912Z,99905.81
2022-12-25T03:25:40.285Z,99903.38
2022-12-25T03:26:11.678Z,99908.03
2022-12-25T03:26:43.139Z,99904.19
2022-12-25T03:27:14.493Z,99901.97
2022-12-25T03:27:45.858Z,99904.72
2022-12-25T03:28:17.456Z,99894.91
2022-12-25T03:28:48.818Z,99898.72
2022-12-25T03:29:20.180Z,99898.72
2022-12-25T03:29:51.529Z,99903.38
2022-12-25T03:30:22.872Z,99900.06
2022-12-25T03:30:54.293Z,99901.69
2022-12-25T03:31:25.897Z,99891.88
2022-12-25T03:31:57.407Z,99897.34
2022-12-25T03:32:28.745Z,99896.53
2022-12-25T03:33:00.111Z,99886.72
2022-12-25T03:33:47.686Z,99891.06
2022-12-25T03:34:19.084Z,99881.78
2022-12-25T03:34:50.484Z,99891.34
2022-12-25T03:35:21.869Z,99884.50
2022-12-25T03:35:53.241Z,99891.06
2022-12-25T03:36:24.606Z,99888.03
2022-12-25T03:36:55.974Z,99881.53
2022-12-25T03:37:27.391Z,99884.78
2022-12-25T03:37:58.839Z,99885.31
2022-12-25T03:38:30.189Z,99883.69
2022-12-25T03:39:01.637Z,99878.22
2022-12-25T03:39:33.051Z,99874.69
2022-12-25T03:40:04.471Z,99879.84
2022-12-25T03:40:35.828Z,99875.88
2022-12-25T03:41:07.229Z,99875.78
2022-12-25T03:41:38.588Z,99880.44
2022-12-25T03:42:10.000Z,99881.25
2022-12-25T03:42:41.395Z,99878.00
2022-12-25T03:43:12.807Z,99883.97
2022-12-25T03:43:44.249Z,99878.00
2022-12-25T03:44:15.692Z,99878.00
2022-12-25T03:44:47.121Z,99882.34
2022-12-25T03:45:18.509Z,99867.91
2022-12-25T03:45:49.867Z,99870.34
2022-12-25T03:46:21.277Z,99871.44
2022-12-25T03:46:52.672Z,99870.34
2022-12-25T03:47:24.051Z,99867.59
2022-12-25T03:47:55.435Z,99873.59
2022-12-25T03:48:26.830Z,99880.97
2022-12-25T03:48:58.250Z,99875.78
2022-12-25T03:49:29.710Z,99876.59
2022-12-25T03:50:01.064Z,99877.41
2022-12-25T03:50:32.436Z,99871.44
2022-12-25T03:51:03.845Z,99869.53
2022-12-25T03:51:35.253Z,99872.56
2022-12-25T03:52:06.634Z,99871.16
2022-12-25T03:52:38.027Z,99871.44
2022-12-25T03:53:09.405Z,99870.63
2022-12-25T03:53:40.764Z,99866.00
2022-12-25T03:54:12.194Z,99868.41
2022-12-25T03:54:43.620Z,99862.97
2022-12-25T03:55:15.031Z,99873.06
2022-12-25T03:55:46.414Z,99867.09
2022-12-25T03:56:17.826Z,99869.53
2022-12-25T03:56:49.194Z,99865.19
2022-12-25T03:57:20.585Z,99868.72
2022-12-25T03:57:51.954Z,99858.91
2022-12-25T03:58:23.368Z,99865.69
2022-12-25T03:58:54.725Z,99863.25
2022-12-25T03:59:26.096Z,99860.81
2022-12-25T03:59:57.509Z,99852.63
2022-12-25T04:00:28.879Z,99849.91
2022-12-25T04:01:00.478Z,99845.28
2022-12-25T04:01:32.076Z,99848.50
2022-12-25T04:02:03.628Z,99847.69
2022-12-25T04:02:35.178Z,99848.50
2022-12-25T04:03:06.667Z,99850.13
2022-12-25T04:03:38.154Z,99848.81
2022-12-25T04:04:09.624Z,99855.59
2022-12-25T04:04:41.057Z,99849.03
2022-12-25T04:05:12.524Z,99852.56
2022-12-25T04:05:43.966Z,99853.97
2022-12-25T04:06:15.401Z,99855.59
2022-12-25T04:06:46.768Z,99855.59
2022-12-25T04:07:18.105Z,99868.50
2022-12-25T04:07:49.452Z,99866.00
2022-12-25T04:08:20.803Z,99862.16
2022-12-25T04:08:52.180Z,99855.06
2022-12-25T04:09:23.561Z,99857.22
2022-12-25T04:09:54.954Z,99848.81
2022-12-25T04:10:26.445Z,99852.88
2022-12-25T04:10:57.914Z,99846.38
2022-12-25T04:11:29.309Z,99842.53
2022-12-25T04:12:02.995Z,99849.41
2022-12-25T04:12:34.652Z,99837.91
2022-12-25T04:13:06.081Z,99839.00
2022-12-25T04:13:37.452Z,99837.97
2022-12-25T04:14:08.855Z,99833.03
2022-12-25T04:14:40.222Z,99831.91
2022-12-25T04:15:11.610Z,99832.72
2022-12-25T04:15:43.144Z,99825.13
2022-12-25T04:16:14.674Z,99830.81
2022-12-25T04:16:46.292Z,99829.47
2022-12-25T04:17:17.694Z,99826.97
2022-12-25T04:17:49.091Z,99825.88
2022-12-25T04:18:20.456Z,99820.41
2022-12-25T04:18:51.835Z,99824.53
2022-12-25T04:19:23.238Z,99821.81
2022-12-25T04:19:54.624Z,99833.53
2022-12-25T04:20:26.004Z,99827.56
2022-12-25T04:20:57.418Z,99832.22
2022-12-25T04:21:28.768Z,99825.66
2022-12-25T04:22:00.162Z,99831.09
2022-12-25T04:22:31.603Z,99829.47
2022-12-25T04:23:03.038Z,99822.94
2022-12-25T04:23:34.497Z,99830.22
2022-12-25T04:24:05.875Z,99829.94
2022-12-25T04:24:37.230Z,99830.00
2022-12-25T04:25:08.615Z,99825.56
2022-12-25T04:25:39.979Z,99834.88
2022-12-25T04:26:11.400Z,99826.38
2022-12-25T04:26:42.766Z,99831.63
2022-12-25T04:27:14.159Z,99836.28
2022-12-25T04:27:45.623Z,99834.56
2022-12-25T04:28:17.031Z,99832.44
2022-12-25T04:28:48.425Z,99837.16
2022-12-25T04:29:19.855Z,99841.44
2022-12-25T04:29:51.205Z,99836.56
2022-12-25T04:30:22.583Z,99838.69
2022-12-25T04:30:53.969Z,99841.72
2022-12-25T04:31:25.518Z,99846.88
2022-12-25T04:31:57.023Z,99845.28
2022-12-25T04:32:28.413Z,99848.50
2022-12-25T04:32:59.769Z,99845.78
2022-12-25T04:33:31.155Z,99846.31
2022-12-25T04:34:02.564Z,99850.44
2022-12-25T04:34:33.946Z,99850.44
2022-12-25T04:35:05.351Z,99856.69
2022-12-25T04:35:36.745Z,99865.69
2022-12-25T04:36:08.180Z,99861.34
2022-12-25T04:36:39.631Z,99855.59
2022-12-25T04:37:10.990Z,99864.59
2022-12-25T04:37:42.319Z,99856.91
2022-12-25T04:38:13.716Z,99855.59
2022-12-25T04:38:45.113Z,99851.25
2022-12-25T04:39:16.506Z,99863.25
2022-12-25T04:39:47.922Z,99853.69
2022-12-25T04:40:19.479Z,99851.81
2022-12-25T04:40:50.876Z,99848.50
2022-12-25T04:41:22.211Z,99855.06
2022-12-25T04:41:53.718Z,99851.81
2022-12-25T04:42:25.070Z,99845.78
2022-12-25T04:42:56.515Z,99847.41
2022-12-25T04:43:27.871Z,99845.19
2022-12-25T04:43:59.336Z,99846.31
2022-12-25T04:44:30.726Z,99844.44
2022-12-25T04:45:04.455Z,99847.41
2022-12-25T04:45:35.953Z,99849.09
2022-12-25T04:46:07.379Z,99848.00
2022-12-25T04:46:38.987Z,99844.97
2022-12-25T04:47:11.690Z,99849.63
2022-12-25T04:47:43.229Z,99849.63
2022-12-25T04:48:14.599Z,99846.06
2022-12-25T04:48:45.990Z,99848.81
2022-12-25T04:49:17.380Z,99860.53
2022-12-25T04:49:48.785Z,99853.44
2022-12-25T04:50:20.183Z,99854.78
2022-12-25T04:50:51.583Z,99857.22
2022-12-25T04:51:22.896Z,99849.03
2022-12-25T04:51:54.269Z,99848.50
2022-12-25T04:52:25.687Z,99849.03
2022-12-25T04:52:57.066Z,99864.06
2022-12-25T04:53:28.452Z,99857.81
2022-12-25T04:53:59.821Z,99853.97
2022-12-25T04:54:31.209Z,99857.50
2022-12-25T04:55:02.629Z,99852.88
2022-12-25T04:55:34.000Z,99856.69
2022-12-25T04:56:05.415Z,99860.81
2022-12-25T04:56:43.513Z,99852.63
2022-12-25T04:57:17.070Z,99855.06
2022-12-25T04:57:48.619Z,99859.13
2022-12-25T04:58:20.064Z,99853.44
2022-12-25T04:58:51.466Z,99858.31
2022-12-25T04:59:22.817Z,99851.81
2022-12-25T04:59:54.185Z,99859.50
2022-12-25T05:00:25.563Z,99848.50
2022-12-25T05:00:56.953Z,99850.22
2022-12-25T05:01:28.487Z,99851.00
2022-12-25T05:02:00.041Z,99847.19
2022-12-25T05:02:31.709Z,99851.81
2022-12-25T05:03:03.326Z,99856.47
2022-12-25T05:03:34.813Z,99845.28
2022-12-25T05:04:06.252Z,99849.63
2022-12-25T05:04:37.633Z,99848.00
2022-12-25T05:05:09.018Z,99842.53
2022-12-25T05:05:40.381Z,99844.44
2022-12-25T05:06:11.807Z,99843.66
2022-12-25T05:06:43.259Z,99840.63
2022-12-25T05:07:14.608Z,99844.16
2022-12-25T05:07:45.986Z,99839.50
2022-12-25T05:08:17.397Z,99834.88
2022-12-25T05:08:48.782Z,99841.13
2022-12-25T05:09:20.221Z,99833.03
2022-12-25T05:09:51.583Z,99835.16
2022-12-25T05:10:22.949Z,99831.63
2022-12-25T05:10:54.381Z,99831.34
2022-12-25T05:11:25.743Z,99828.59
2022-12-25T05:11:57.161Z,99828.38
2022-12-25T05:12:28.571Z,99829.41
2022-12-25T05:12:59.925Z,99824.78
2022-12-25T05:13:31.320Z,99828.59
2022-12-25T05:14:02.671Z,99825.56
2022-12-25T05:14:34.131Z,99823.16
2022-12-25T05:15:05.564Z,99828.38
2022-12-25T05:15:37.035Z,99825.06
2022-12-25T05:16:08.515Z,99827.50
2022-12-25T05:16:39.927Z,99825.56
2022-12-25T05:17:11.352Z,99828.31
2022-12-25T05:17:42.787Z,99829.13
2022-12-25T05:18:14.136Z,99824.19
2022-12-25T05:18:45.585Z,99830.53
2022-12-25T05:19:17.081Z,99823.97
2022-12-25T05:19:48.443Z,99825.56
2022-12-25T05:20:19.882Z,99829.13
2022-12-25T05:20:51.217Z,99824.47
2022-12-25T05:21:22.636Z,99826.97
2022-12-25T05:21:53.972Z,99835.38
2022-12-25T05:22:25.407Z,99831.09
2022-12-25T05:22:56.805Z,99829.19
2022-12-25T05:23:28.151Z,99835.47
2022-12-25T05:23:59.517Z,99832.13
2022-12-25T05:24:30.874Z,99836.56
2022-12-25T05:25:02.271Z,99827.88
2022-12-25T05:25:33.666Z,99827.28
2022-12-25T05:26:05.097Z,99831.63
2022-12-25T05:26:36.462Z,99826.69
2022-12-25T05:27:07.842Z,99831.03
2022-12-25T05:27:39.235Z,99830.81
2022-12-25T05:28:10.607Z,99831.34
2022-12-25T05:28:42.024Z,99826.16
2022-12-25T05:29:13.429Z,99826.75
2022-12-25T05:29:44.864Z,99821.53
2022-12-25T05:30:16.220Z,99821.31
2022-12-25T05:30:47.721Z,99821.00
2022-12-25T05:31:19.242Z,99824.78
2022-12-25T05:31:50.844Z,99822.63
2022-12-25T05:32:22.274Z,99821.31
2022-12-25T05:32:53.708Z,99816.38
2022-12-25T05:33:25.957Z,99818.78
2022-12-25T05:33:57.404Z,99816.88
2022-12-25T05:34:28.820Z,99816.38
2022-12-25T05:35:00.262Z,99815.03
2022-12-25T05:35:31.623Z,99822.34
2022-12-25T05:36:03.068Z,99821.81
2022-12-25T05:36:34.379Z,99819.91
2022-12-25T05:37:05.763Z,99819.09
2022-12-25T05:37:37.130Z,99820.19
2022-12-25T05:38:08.552Z,99822.09
2022-12-25T05:38:39.923Z,99819.91
2022-12-25T05:39:11.336Z,99817.47
2022-12-25T05:39:42.772Z,99817.47
2022-12-25T05:40:14.245Z,99819.69
2022-12-25T05:40:45.625Z,99817.75
2022-12-25T05:41:16.989Z,99822.09
2022-12-25T05:41:48.411Z,99818.78
2022-12-25T05:42:19.758Z,99821.31
2022-12-25T05:42:51.124Z,99816.88
2022-12-25T05:43:22.511Z,99813.84
2022-12-25T05:43:53.939Z,99813.03
2022-12-25T05:44:25.298Z,99819.91
2022-12-25T05:44:56.703Z,99814.66
2022-12-25T05:45:28.145Z,99807.88
2022-12-25T05:45:59.558Z,99809.22
2022-12-25T05:46:30.987Z,99816.06
2022-12-25T05:47:02.524Z,99814.97
2022-12-25T05:47:33.921Z,99812.22
2022-12-25T05:48:05.324Z,99811.94
2022-12-25T05:48:36.850Z,99814.38
2022-12-25T05:49:08.293Z,99809.00
2022-12-25T05:49:39.769Z,99815.47
2022-12-25T05:50:11.165Z,99817.16
2022-12-25T05:50:42.597Z,99814.44
2022-12-25T05:51:14.012Z,99810.31
2022-12-25T05:51:45.399Z,99812.53
2022-12-25T05:52:16.789Z,99819.09
2022-12-25T05:52:48.191Z,99816.06
2022-12-25T05:53:19.578Z,99810.09
2022-12-25T05:53:50.999Z,99809.00
2022-12-25T05:54:22.526Z,99817.47
2022-12-25T05:54:53.937Z,99805.16
2022-12-25T05:55:25.295Z,99810.31
2022-12-25T05:55:56.688Z,99810.59
2022-12-25T05:56:28.163Z,99804.84
2022-12-25T05:56:59.549Z,99808.09
2022-12-25T05:57:30.917Z,99809.28
2022-12-25T05:58:02.279Z,99807.59
2022-12-25T05:58:33.601Z,99805.97
2022-12-25T05:59:04.977Z,99809.00
2022-12-25T05:59:36.356Z,99808.69
2022-12-25T06:00:07.745Z,99813.03
2022-12-25T06:00:39.099Z,99813.63
2022-12-25T06:01:10.582Z,99801.63
2022-12-25T06:01:42.159Z,99798.88
2022-12-25T06:02:13.799Z,99797.25
2022-12-25T06:02:45.570Z,99797.47
2022-12-25T06:03:17.176Z,99799.91
2022-12-25T06:03:48.820Z,99805.97
2022-12-25T06:04:20.293Z,99791.22
2022-12-25T06:04:51.848Z,99799.47
2022-12-25T06:05:23.234Z,99798.06
2022-12-25T06:05:54.645Z,99797.78
2022-12-25T06:06:26.123Z,99798.28
2022-12-25T06:06:57.519Z,99797.47
2022-12-25T06:07:28.897Z,99795.88
2022-12-25T06:08:00.302Z,99793.66
2022-12-25T06:08:31.691Z,99799.47
2022-12-25T06:09:03.057Z,99794.25
2022-12-25T06:09:34.396Z,99796.66
2022-12-25T06:10:05.782Z,99799.19
2022-12-25T06:10:37.176Z,99794.25
2022-12-25T06:11:08.578Z,99797.25